• Join FlightAware (Why Join?)
  • Login
  • US Flag 
03:48AM EST


 

Airport Tracker/Info


-or-


 

Live Flight TrackerFlight Track Log ✈ SWA378 ✈ 30-Apr-2013 ✈ KLAX - KATL

Flight Track Log - Related Links

Times and Time Zones

All times are in EDT time to prevent confusion due to time zone crossing. See the SWA378 flight status page for this flight to view local times or setup timezone preferences in your user account.

Time Position Orientation Groundspeed Altitude Reporting Facility
EDT Latitude Longitude Course Direction KTS MPH feet Rate Location/Type
01:18PM 33.9428 -118.5069 258° West 199 229 2,300  Level Los Angeles Center
01:19PM 33.8908 -118.5656 223° Southwest 261 300 5,500 2,940 Climbing Los Angeles Center
01:20PM 33.8044 -118.5481 170° South 295 339 8,500 2,880 Climbing Los Angeles Center
01:21PM 33.7225 -118.5269 168° South 304 350 11,500 2,460 Climbing Los Angeles Center
01:22PM 33.6736 -118.4403 124° Southeast 333 383 13,600 2,160 Climbing Los Angeles Center
01:23PM 33.6590 -118.4013 121° Southeast  Level FlightAware Approximate
01:23PM 33.6700 -118.3225 92° East 369 425 16,000  Level Los Angeles Center
01:24PM 33.6678 -118.1744 91° East 380 437 19,200 2,340 Climbing Los Angeles Center
01:25PM 33.6658 -118.0442 91° East 394 453 20,900 1,740 Climbing Los Angeles Center
01:26PM 33.6644 -117.9036 91° East 423 487 22,900 2,100 Climbing Los Angeles Center
01:27PM 33.6622 -117.7611 91° East 429 494 25,300 1,980 Climbing Los Angeles Center
01:28PM 33.6608 -117.6172 91° East 431 496 27,100 1,740 Climbing Los Angeles Center
01:29PM 33.6581 -117.4419 91° East 437 503 28,900 1,680 Climbing Los Angeles Center
01:31PM 33.6553 -117.2931 91° East 447 514 30,600 1,560 Climbing Los Angeles Center
01:32PM 33.6547 -117.1444 90° East 447 514 32,200 1,440 Climbing Los Angeles Center
01:33PM 33.6772 -116.9997 79° East 443 510 33,600 1,320 Climbing Los Angeles Center
01:34PM 33.6975 -116.8447 81° East 441 507 35,000 1,260 Climbing Los Angeles Center
01:35PM 33.7186 -116.6994 80° East 441 507 36,300 960 Climbing Los Angeles Center
01:36PM 33.7375 -116.5569 81° East 435 501 37,000 300 Climbing Los Angeles Center
01:37PM 33.7597 -116.3847 81° East 434 499 37,000  Level Los Angeles Center
01:38PM 33.7797 -116.2411 80° East 434 499 37,000  Level Los Angeles Center
01:39PM 33.8008 -116.0964 80° East 436 502 37,000  Level Los Angeles Center
01:40PM 33.8250 -115.9547 78° East 434 499 37,000  Level Los Angeles Center
01:41PM 33.8475 -115.8119 79° East 434 499 37,000  Level Los Angeles Center
01:42PM 33.8694 -115.6678 80° East 436 502 37,000  Level Los Angeles Center
01:43PM 33.8969 -115.4953 79° East 439 505 37,000  Level Los Angeles Center
01:44PM 33.9206 -115.3506 79° East 440 506 37,000  Level Los Angeles Center
01:45PM 33.9425 -115.2064 80° East 438 504 37,000  Level Los Angeles Center
01:46PM 33.9636 -115.0608 80° East 442 509 37,000  Level Los Angeles Center
01:47PM 33.9872 -114.9156 79° East 442 509 37,000  Level Los Angeles Center
01:48PM 34.0086 -114.7692 80° East 444 511 37,000  Level Los Angeles Center
01:49PM 34.0353 -114.5947 80° East 443 510 37,000  Level Los Angeles Center
01:50PM 34.0569 -114.4500 80° East 440 506 37,000  Level Los Angeles Center
01:51PM 34.0789 -114.3039 80° East 445 512 37,000  Level Los Angeles Center
01:52PM 34.0897 -114.2297 80° East 440 506 37,000  Level Albuquerque Center
01:53PM 34.1108 -114.0853 80° East 438 504 37,000  Level Albuquerque Center
01:54PM 34.1328 -113.9386 80° East 438 504 37,000  Level Albuquerque Center
01:55PM 34.1586 -113.7644 80° East 440 506 37,000  Level Albuquerque Center
01:56PM 34.1789 -113.6181 80° East 441 507 37,000  Level Albuquerque Center
01:57PM 34.1986 -113.4733 81° East 444 511 37,000  Level Albuquerque Center
01:58PM 34.2183 -113.3250 81° East 447 514 37,000  Level Albuquerque Center
01:59PM 34.2383 -113.1789 81° East 444 511 37,000  Level Albuquerque Center
02:00PM 34.2589 -113.0308 80° East 445 512 37,000  Level Albuquerque Center
02:01PM 34.2811 -112.8536 81° East 446 513 37,000  Level Albuquerque Center
02:02PM 34.2997 -112.7056 81° East 446 513 37,000  Level Albuquerque Center
02:03PM 34.3175 -112.5564 82° East 446 513 37,000  Level Albuquerque Center
02:04PM 34.3383 -112.4067 80° East 450 518 37,000  Level Albuquerque Center
02:05PM 34.3564 -112.2569 82° East 448 516 37,000  Level Albuquerque Center
02:06PM 34.3744 -112.1067 82° East 449 517 37,000  Level Albuquerque Center
02:07PM 34.3919 -111.9569 82° East 447 514 37,000  Level Albuquerque Center
02:08PM 34.4103 -111.8064 82° East 448 516 37,000  Level Albuquerque Center
02:09PM 34.4308 -111.6264 82° East 448 516 37,000  Level Albuquerque Center
02:10PM 34.4489 -111.4744 82° East 452 520 37,000  Level Albuquerque Center
02:11PM 34.4661 -111.3219 82° East 454 522 37,000  Level Albuquerque Center
02:12PM 34.4836 -111.1700 82° East 455 524 37,000  Level Albuquerque Center
02:13PM 34.5008 -111.0186 82° East 454 522 37,000  Level Albuquerque Center
02:14PM 34.5175 -110.8678 82° East 452 520 37,000  Level Albuquerque Center
02:16PM 34.5378 -110.6894 82° East 450 518 37,000  Level Albuquerque Center
02:17PM 34.5539 -110.5469 82° East 449 517 37,000  Level Albuquerque Center
02:18PM 34.5725 -110.3797 82° East 448 516 37,000  Level Albuquerque Center
02:19PM 34.5878 -110.2364 83° East 448 516 37,000  Level Albuquerque Center
02:20PM 34.6042 -110.0672 83° East 451 519 37,000  Level Albuquerque Center
02:21PM 34.6186 -109.9225 83° East 452 520 37,000  Level Albuquerque Center
02:22PM 34.6342 -109.7783 82° East 452 520 37,000  Level Albuquerque Center
02:23PM 34.6503 -109.6078 83° East 454 522 37,000  Level Albuquerque Center
02:24PM 34.6658 -109.4608 83° East 457 526 37,000  Level Albuquerque Center
02:25PM 34.6828 -109.2917 83° East 454 522 37,000  Level Albuquerque Center
02:26PM 34.6964 -109.1472 83° East 452 520 37,000  Level Albuquerque Center
02:27PM 34.7136 -108.9761 83° East 457 526 37,000  Level Albuquerque Center
02:28PM 34.7272 -108.8314 83° East 454 522 37,000  Level Albuquerque Center
02:29PM 34.7428 -108.6625 84° East 452 520 37,000  Level Albuquerque Center
02:30PM 34.7561 -108.5169 84° East 453 521 37,000  Level Albuquerque Center
02:31PM 34.7697 -108.3553 84° East 454 522 37,000  Level Albuquerque Center
02:32PM 34.7836 -108.2028 84° East 455 524 37,000  Level Albuquerque Center
02:33PM 34.7972 -108.0525 84° East 451 519 37,000  Level Albuquerque Center
02:34PM 34.8103 -107.9025 84° East 449 517 37,000  Level Albuquerque Center
02:35PM 34.8231 -107.7525 84° East 448 516 37,000  Level Albuquerque Center
02:36PM 34.8339 -107.6028 85° East 446 513 37,000  Level Albuquerque Center
02:37PM 34.8492 -107.4244 84° East 444 511 37,000  Level Albuquerque Center
02:38PM 34.8611 -107.2742 84° East 446 513 37,000  Level Albuquerque Center
02:39PM 34.8756 -107.1233 83° East 451 519 37,000  Level Albuquerque Center
02:40PM 34.8867 -106.9553 85° East 448 516 37,000  Level Albuquerque Center
02:41PM 34.8981 -106.8114 84° East 447 514 37,000  Level Albuquerque Center
02:42PM 34.9097 -106.6453 85° East 442 509 37,000  Level Albuquerque Center
02:43PM 34.9206 -106.4972 85° East 460 529 37,000  Level Albuquerque Center
02:44PM 34.9308 -106.3481 85° East 448 516 37,000  Level Albuquerque Center
02:45PM 34.9411 -106.2003 85° East 442 509 37,000  Level Albuquerque Center
02:46PM 34.9517 -106.0533 85° East 438 504 37,000  Level Albuquerque Center
02:47PM 34.9617 -105.9086 85° East 433 498 37,000  Level Albuquerque Center
02:48PM 34.9728 -105.7544 85° East 429 494 37,000  Level Albuquerque Center
02:50PM 34.9836 -105.5853 85° East 426 490 37,000  Level Albuquerque Center
02:51PM 34.9936 -105.4400 85° East 427 491 37,000  Level Albuquerque Center
02:52PM 35.0031 -105.2947 85° East 427 491 37,000  Level Albuquerque Center
02:53PM 35.0128 -105.1486 85° East 429 494 37,000  Level Albuquerque Center
02:54PM 35.0214 -105.0003 86° East 433 498 37,000  Level Albuquerque Center
02:55PM 35.0306 -104.8531 86° East 433 498 37,000  Level Albuquerque Center
02:56PM 35.0397 -104.7050 86° East 434 499 37,000  Level Albuquerque Center
02:57PM 35.0478 -104.5581 86° East 433 498 37,000  Level Albuquerque Center
02:58PM 35.0572 -104.3861 86° East 435 501 37,000  Level Albuquerque Center
02:59PM 35.0656 -104.2381 86° East 438 504 37,000  Level Albuquerque Center
03:00PM 35.0758 -104.0994 85° East 440 506 37,000  Level Albuquerque Center
03:01PM 35.0839 -103.9497 86° East 441 507 37,000  Level Albuquerque Center
03:02PM 35.0908 -103.7892 87° East 444 511 37,000  Level Albuquerque Center
03:03PM 35.1003 -103.6142 86° East 441 507 37,000  Level Albuquerque Center
03:04PM 35.1078 -103.4631 86° East 442 509 37,000  Level Albuquerque Center
03:05PM 35.1153 -103.3119 86° East 442 509 37,000  Level Albuquerque Center
03:06PM 35.1219 -103.1625 87° East 440 506 37,000  Level Albuquerque Center
03:07PM 35.1289 -103.0128 87° East 439 505 37,000  Level Albuquerque Center
03:08PM 35.1336 -102.8764 88° East 437 503 37,000  Level Albuquerque Center
03:09PM 35.1419 -102.6989 87° East 437 503 37,000  Level Albuquerque Center
03:10PM 35.1469 -102.5514 88° East 436 502 37,000  Level Albuquerque Center
03:11PM 35.1531 -102.4039 87° East 436 502 37,000  Level Albuquerque Center
03:12PM 35.1594 -102.2581 87° East 434 499 37,000  Level Albuquerque Center
03:13PM 35.1639 -102.1108 88° East 434 499 37,000  Level Albuquerque Center
03:14PM 35.1719 -101.9478 86° East 432 497 37,000  Level Albuquerque Center
03:15PM 35.1775 -101.8006 87° East 431 496 37,000  Level Albuquerque Center
03:16PM 35.1825 -101.6542 88° East 429 494 37,000  Level Albuquerque Center
03:17PM 35.1892 -101.4925 87° East 429 494 37,000  Level Albuquerque Center
03:18PM 35.1947 -101.3453 87° East 431 496 37,000  Level Albuquerque Center
03:19PM 35.2142 -101.1925 81° East 431 496 37,000  Level Albuquerque Center
03:20PM 35.2392 -101.0486 78° East 433 498 37,000 60 Level Albuquerque Center
03:21PM 35.2658 -100.9064 77° East 432 497 37,200 720 Climbing Albuquerque Center
03:22PM 35.2769 -100.7622 85° East 425 489 38,600 840 Climbing Albuquerque Center
03:23PM 35.2767 -100.6233 90° East 425 489 39,000 180 Climbing Albuquerque Center
03:25PM 35.2803 -100.4789 88° East 426 490 39,000  Level Albuquerque Center
03:26PM 35.2822 -100.3044 89° East 427 491 39,000  Level Albuquerque Center
03:27PM 35.2847 -100.1572 89° East 431 496 39,000  Level Albuquerque Center
03:28PM 35.2875 -100.0117 89° East 430 495 39,000  Level Albuquerque Center
03:29PM 35.2892 -99.8650 89° East 431 496 39,000  Level Albuquerque Center
03:30PM 35.2911 -99.7169 89° East 435 501 39,000  Level Albuquerque Center
03:31PM 35.2925 -99.5706 89° East 433 498 39,000  Level Albuquerque Center
03:32PM 35.2939 -99.4244 89° East 431 496 39,000  Level Albuquerque Center
03:33PM 35.2944 -99.2703 90° East 429 494 39,000  Level Fort Worth Center
03:34PM 35.2964 -99.1228 89° East 429 494 39,000  Level Fort Worth Center
03:35PM 35.2964 -98.9778 90° East 424 488 39,000  Level Fort Worth Center
03:36PM 35.2981 -98.8328 89° East 424 488 39,000  Level Fort Worth Center
03:37PM 35.2953 -98.6878 91° East 424 488 39,000  Level Fort Worth Center
03:38PM 35.2969 -98.5403 89° East 424 488 39,000  Level Fort Worth Center
03:39PM 35.2978 -98.4158 89° East 415 478 39,000  Level Fort Worth Center
03:40PM 35.2969 -98.2681 90° East 415 478 39,000  Level Fort Worth Center
03:41PM 35.2978 -98.1233 90° East 420 483 39,000  Level Fort Worth Center
03:42PM 35.2964 -97.9756 91° East 420 483 39,000  Level Fort Worth Center
03:43PM 35.2969 -97.8333 90° East 420 483 39,000  Level Fort Worth Center
03:44PM 35.2953 -97.6806 91° East 425 489 39,000  Level Fort Worth Center
03:45PM 35.2936 -97.5356 91° East 425 489 39,000  Level Fort Worth Center
03:46PM 35.2936 -97.3678 90° East 438 504 39,000  Level Fort Worth Center
03:47PM 35.2933 -97.2203 90° East 438 504 39,000  Level Fort Worth Center
03:48PM 35.2889 -97.0678 92° East 438 504 39,000  Level Fort Worth Center
03:49PM 35.2886 -96.9203 90° East 438 504 39,000  Level Fort Worth Center
03:50PM 35.2858 -96.7728 91° East 438 504 39,000  Level Fort Worth Center
03:51PM 35.2847 -96.6200 90° East 438 504 39,000  Level Fort Worth Center
03:52PM 35.2839 -96.4725 90° East 438 504 39,000  Level Fort Worth Center
03:53PM 35.2806 -96.3225 92° East 438 504 39,000  Level Fort Worth Center
03:54PM 35.2792 -96.1750 91° East 438 504 39,000  Level Fort Worth Center
03:55PM 35.2756 -96.0253 92° East 438 504 39,000  Level Fort Worth Center
03:56PM 35.2717 -95.8753 92° East 438 504 39,000  Level Fort Worth Center
03:57PM 35.2700 -95.7456 91° East 418 481 39,000  Level Fort Worth Center
03:58PM 35.2681 -95.6031 91° East 423 487 39,000  Level Fort Worth Center
03:59PM 35.2631 -95.3742 91° East 439 505 39,000  Level Memphis Center
04:00PM 35.2586 -95.2239 92° East 439 505 39,000  Level Memphis Center
04:01PM 35.2539 -95.0789 92° East 439 505 39,000  Level Memphis Center
04:02PM 35.2511 -94.9261 91° East 439 505 39,000  Level Memphis Center
04:03PM 35.2461 -94.7783 92° East 444 511 39,000  Level Memphis Center
04:04PM 35.2411 -94.6256 92° East 444 511 39,000  Level Memphis Center
04:05PM 35.2378 -94.4703 91° East 444 511 39,000  Level Memphis Center
04:06PM 35.2303 -94.3200 93° East 444 511 39,000  Level Memphis Center
04:07PM 35.2267 -94.1647 92° East 444 511 39,000  Level Memphis Center
04:08PM 35.2208 -94.0144 93° East 444 511 39,000  Level Memphis Center
04:09PM 35.2169 -93.8594 92° East 444 511 39,000  Level Memphis Center
04:10PM 35.2086 -93.7092 94° East 444 511 39,000  Level Memphis Center
04:11PM 35.2081 -93.5744 90° East 444 511 39,000  Level Memphis Center
04:12PM 35.2033 -93.4217 92° East 444 511 39,000  Level Memphis Center
04:13PM 35.1967 -93.2639 93° East 444 511 39,000  Level Memphis Center
04:14PM 35.1897 -93.1139 93° East 444 511 39,000  Level Memphis Center
04:15PM 35.1828 -92.9536 93° East 444 511 39,000  Level Memphis Center
04:16PM 35.1775 -92.8008 92° East 450 518 39,000  Level Memphis Center
04:17PM 35.1681 -92.6406 94° East 457 526 39,000  Level Memphis Center
04:18PM 35.1606 -92.4728 93° East 467 537 39,000  Level Memphis Center
04:19PM 35.1525 -92.3253 94° East 467 537 39,000  Level Memphis Center
04:20PM 35.1444 -92.1653 93° East 472 543 39,000  Level Memphis Center
04:21PM 35.1386 -91.9872 92° East 472 543 39,000  Level Memphis Center
04:22PM 35.1281 -91.8244 94° East 477 549 39,000  Level Memphis Center
04:23PM 35.1194 -91.6594 94° East 482 555 39,000  Level Memphis Center
04:24PM 35.1106 -91.4969 94° East 482 555 39,000  Level Memphis Center
04:25PM 35.1017 -91.3317 94° East 487 560 39,000  Level Memphis Center
04:26PM 35.0925 -91.1617 94° East 487 560 39,000  Level Memphis Center
04:27PM 35.0831 -90.9939 94° East 493 567 39,000  Level Memphis Center
04:28PM 35.0711 -90.8289 95° East 493 567 39,000  Level Memphis Center
04:29PM 35.0592 -90.6589 95° East 503 579 39,000  Level Memphis Center
04:30PM 35.0511 -90.5092 94° East 496 571 39,000  Level Memphis Center
04:31PM 35.0408 -90.3444 94° East 491 565 39,000  Level Memphis Center
04:32PM 35.0303 -90.1719 94° East 501 577 39,000  Level Memphis Center
04:33PM 35.0194 -90.0022 94° East 501 577 39,000  Level Memphis Center
04:34PM 35.0000 -89.8222 97° East 501 577 39,000  Level Memphis Center
04:35PM 34.9739 -89.6450 100° East 506 582 39,000  Level Memphis Center
04:36PM 34.9436 -89.4856 103° East 500 575 39,000 -600 Level Memphis Center
04:37PM 34.9175 -89.3214 101° East 495 570 37,900 -1,260 Descending Memphis Center
04:38PM 34.8908 -89.1569 101° East 490 564 36,500 -1,320 Descending Memphis Center
04:39PM 34.8686 -89.0106 100° East 484 557 35,300 -1,080 Descending Memphis Center
04:40PM 34.8458 -88.8439 99° East 489 563 34,400 -1,620 Descending Memphis Center
04:41PM 34.8186 -88.6775 101° East 495 570 32,100 -2,340 Descending Memphis Center
04:42PM 34.7933 -88.5136 101° East 489 563 29,800 -1,740 Descending Memphis Center
04:43PM 34.7678 -88.3547 101° East 465 535 28,600 -1,080 Descending Memphis Center
04:44PM 34.7444 -88.2064 101° East 453 521 27,700 -840 Descending Memphis Center
04:45PM 34.7208 -88.0553 101° East 459 528 27,000 -360 Descending Memphis Center
04:46PM 34.6994 -87.9094 100° East 442 509 27,000  Level Memphis Center
04:47PM 34.6736 -87.7636 102° East 442 509 27,000  Level Memphis Center
04:48PM 34.6517 -87.6206 101° East 442 509 27,000  Level Memphis Center
04:49PM 34.6256 -87.4775 102° East 437 503 27,000  Level Memphis Center
04:50PM 34.5925 -87.2811 102° East 427 491 27,000  Level Atlanta Center
04:51PM 34.5631 -87.1364 104° East 432 497 27,000  Level Atlanta Center
04:52PM 34.5353 -86.9917 103° East 432 497 27,000  Level Atlanta Center
04:53PM 34.5072 -86.8494 103° East 432 497 27,000  Level Atlanta Center
04:54PM 34.4814 -86.7025 102° East 432 497 27,000  Level Atlanta Center
04:55PM 34.4511 -86.5578 104° East 432 497 27,000  Level Atlanta Center
04:56PM 34.4247 -86.4136 102° East 432 497 27,000  Level Atlanta Center
04:57PM 34.3961 -86.2692 103° East 432 497 27,000  Level Atlanta Center
04:58PM 34.3653 -86.1250 104° East 432 497 27,000  Level Atlanta Center
04:59PM 34.3383 -85.9833 103° East 437 503 27,000 -240 Level Atlanta Center
05:00PM 34.3111 -85.8394 103° East 437 503 26,600 -1,260 Descending Atlanta Center
05:01PM 34.2881 -85.7158 103° East 427 491 24,500 -2,280 Descending Atlanta Center
05:02PM 34.2564 -85.5794 106° East 422 486 22,100 -2,400 Descending Atlanta Center
05:03PM 34.2308 -85.4483 103° East 405 466 19,700 -2,280 Descending Atlanta Center
05:04PM 34.2050 -85.3247 104° East 391 450 17,600 -2,160 Descending Atlanta Center
05:05PM 34.1811 -85.2039 103° East 374 430 15,400 -2,100 Descending Atlanta Center
05:06PM 34.1425 -85.0956 113° Southeast 357 411 13,400 -1,260 Descending Atlanta Center
05:07PM 34.0783 -85.0119 133° Southeast 345 397 12,900 -960 Descending Atlanta Center
05:08PM 34.0144 -84.9311 134° Southeast 320 368 11,500 -1,440 Descending Atlanta Center
05:09PM 33.9564 -84.8578 134° Southeast 303 349 10,100 -1,260 Descending Atlanta Center
05:10PM 33.8856 -84.8244 159° South 276 318 9,000 -1,380 Descending Atlanta Center
05:11PM 33.8500 -84.8167 170° South 278 320 8,300 -1,740 Descending Atlanta TRACON
05:12PM 33.7833 -84.7833 157° South 277 319 6,700 -1,500 Descending Atlanta TRACON
05:13PM 33.7333 -84.7500 151° Southeast 271 312 5,500 -1,200 Descending Atlanta TRACON
05:14PM 33.6667 -84.6833 140° Southeast 260 299 4,400 -840 Descending Atlanta TRACON
05:15PM 33.6500 -84.6167 107° East 233 268 3,900 -720 Descending Atlanta TRACON
05:16PM 33.6500 -84.5500 90° East 190 219 3,100 -900 Descending Atlanta TRACON
05:17PM 33.6500 -84.4833 90° East 148 170 2,100 -1,020 Descending Atlanta TRACON
05:19PM 33.6367 -84.4279 102° East  Level Estimated
05:26PM 33.6367 -84.4279 102° East  Level Estimated